sensor_id;sensor_type;location;lat;lon;timestamp;P1;durP1;ratioP1;P2;durP2;ratioP2
9924;SDS011;5001;51.674;7.868;2024-01-07T00:02:15;21.87;;;16.73;;
9924;SDS011;5001;51.674;7.868;2024-01-07T00:04:42;22.83;;;16.83;;
9924;SDS011;5001;51.674;7.868;2024-01-07T00:07:09;23.27;;;17.60;;
9924;SDS011;5001;51.674;7.868;2024-01-07T00:09:38;21.67;;;17.67;;
9924;SDS011;5001;51.674;7.868;2024-01-07T00:12:05;22.63;;;18.10;;
9924;SDS011;5001;51.674;7.868;2024-01-07T00:14:33;23.90;;;19.03;;
9924;SDS011;5001;51.674;7.868;2024-01-07T00:17:00;25.80;;;18.47;;
9924;SDS011;5001;51.674;7.868;2024-01-07T00:19:27;24.23;;;17.60;;
9924;SDS011;5001;51.674;7.868;2024-01-07T00:21:58;24.63;;;17.97;;
9924;SDS011;5001;51.674;7.868;2024-01-07T00:24:31;32.57;;;20.73;;
9924;SDS011;5001;51.674;7.868;2024-01-07T00:26:58;26.33;;;18.33;;
9924;SDS011;5001;51.674;7.868;2024-01-07T00:29:25;21.10;;;16.33;;
9924;SDS011;5001;51.674;7.868;2024-01-07T00:31:52;29.80;;;19.70;;
9924;SDS011;5001;51.674;7.868;2024-01-07T00:34:19;26.83;;;17.80;;
9924;SDS011;5001;51.674;7.868;2024-01-07T00:36:46;31.10;;;20.07;;
9924;SDS011;5001;51.674;7.868;2024-01-07T00:39:13;45.87;;;23.17;;
9924;SDS011;5001;51.674;7.868;2024-01-07T00:41:40;48.47;;;24.53;;
9924;SDS011;5001;51.674;7.868;2024-01-07T00:44:07;42.40;;;22.77;;
9924;SDS011;5001;51.674;7.868;2024-01-07T00:46:34;94.27;;;35.17;;
9924;SDS011;5001;51.674;7.868;2024-01-07T00:49:01;43.40;;;23.60;;
9924;SDS011;5001;51.674;7.868;2024-01-07T00:51:28;117.00;;;38.07;;
9924;SDS011;5001;51.674;7.868;2024-01-07T00:53:55;25.77;;;17.70;;
9924;SDS011;5001;51.674;7.868;2024-01-07T00:56:25;36.77;;;21.80;;
9924;SDS011;5001;51.674;7.868;2024-01-07T00:58:53;31.47;;;20.60;;
9924;SDS011;5001;51.674;7.868;2024-01-07T01:01:21;32.10;;;20.23;;
9924;SDS011;5001;51.674;7.868;2024-01-07T01:03:48;48.87;;;23.80;;
9924;SDS011;5001;51.674;7.868;2024-01-07T01:06:15;22.63;;;17.27;;
9924;SDS011;5001;51.674;7.868;2024-01-07T01:08:42;40.10;;;23.27;;
9924;SDS011;5001;51.674;7.868;2024-01-07T01:11:09;34.03;;;22.00;;
9924;SDS011;5001;51.674;7.868;2024-01-07T01:13:37;26.80;;;16.87;;
9924;SDS011;5001;51.674;7.868;2024-01-07T01:16:04;23.30;;;17.40;;
9924;SDS011;5001;51.674;7.868;2024-01-07T01:18:31;33.57;;;21.27;;
9924;SDS011;5001;51.674;7.868;2024-01-07T01:20:58;53.63;;;27.93;;
9924;SDS011;5001;51.674;7.868;2024-01-07T01:23:25;22.70;;;18.20;;
9924;SDS011;5001;51.674;7.868;2024-01-07T01:25:52;19.00;;;16.67;;
9924;SDS011;5001;51.674;7.868;2024-01-07T01:28:19;27.17;;;19.23;;
9924;SDS011;5001;51.674;7.868;2024-01-07T01:30:45;26.93;;;19.37;;
9924;SDS011;5001;51.674;7.868;2024-01-07T01:33:13;23.27;;;18.17;;
9924;SDS011;5001;51.674;7.868;2024-01-07T01:35:40;24.67;;;17.53;;
9924;SDS011;5001;51.674;7.868;2024-01-07T01:38:07;21.17;;;16.37;;
9924;SDS011;5001;51.674;7.868;2024-01-07T01:40:34;19.97;;;16.30;;
9924;SDS011;5001;51.674;7.868;2024-01-07T01:43:04;19.33;;;16.17;;
9924;SDS011;5001;51.674;7.868;2024-01-07T01:45:31;21.33;;;17.60;;
9924;SDS011;5001;51.674;7.868;2024-01-07T01:47:58;19.67;;;16.30;;
9924;SDS011;5001;51.674;7.868;2024-01-07T01:50:26;21.13;;;17.47;;
9924;SDS011;5001;51.674;7.868;2024-01-07T01:52:54;21.27;;;17.63;;
9924;SDS011;5001;51.674;7.868;2024-01-07T01:55:22;21.67;;;17.97;;
9924;SDS011;5001;51.674;7.868;2024-01-07T01:57:49;19.93;;;17.80;;
9924;SDS011;5001;51.674;7.868;2024-01-07T02:00:18;18.23;;;16.20;;
9924;SDS011;5001;51.674;7.868;2024-01-07T02:02:45;18.53;;;16.53;;
9924;SDS011;5001;51.674;7.868;2024-01-07T02:05:12;17.93;;;16.07;;
9924;SDS011;5001;51.674;7.868;2024-01-07T02:07:41;21.43;;;17.87;;
9924;SDS011;5001;51.674;7.868;2024-01-07T02:10:08;18.57;;;16.27;;
9924;SDS011;5001;51.674;7.868;2024-01-07T02:12:36;18.17;;;15.80;;
9924;SDS011;5001;51.674;7.868;2024-01-07T02:15:03;19.00;;;17.10;;
9924;SDS011;5001;51.674;7.868;2024-01-07T02:17:30;19.57;;;17.00;;
9924;SDS011;5001;51.674;7.868;2024-01-07T02:19:58;22.93;;;18.00;;
9924;SDS011;5001;51.674;7.868;2024-01-07T02:22:25;20.03;;;17.17;;
9924;SDS011;5001;51.674;7.868;2024-01-07T02:24:52;19.00;;;16.80;;
9924;SDS011;5001;51.674;7.868;2024-01-07T02:27:19;19.77;;;17.70;;
9924;SDS011;5001;51.674;7.868;2024-01-07T02:29:46;23.53;;;17.77;;
9924;SDS011;5001;51.674;7.868;2024-01-07T02:32:13;21.43;;;17.70;;
9924;SDS011;5001;51.674;7.868;2024-01-07T02:34:39;19.60;;;17.17;;
9924;SDS011;5001;51.674;7.868;2024-01-07T02:37:07;19.00;;;17.07;;
9924;SDS011;5001;51.674;7.868;2024-01-07T02:39:34;18.77;;;16.83;;
9924;SDS011;5001;51.674;7.868;2024-01-07T02:42:01;18.67;;;16.83;;
9924;SDS011;5001;51.674;7.868;2024-01-07T02:44:28;18.67;;;16.60;;
9924;SDS011;5001;51.674;7.868;2024-01-07T02:46:55;21.10;;;17.93;;
9924;SDS011;5001;51.674;7.868;2024-01-07T02:49:22;20.40;;;17.97;;
9924;SDS011;5001;51.674;7.868;2024-01-07T02:51:49;20.97;;;18.73;;
9924;SDS011;5001;51.674;7.868;2024-01-07T02:54:16;19.23;;;17.17;;
9924;SDS011;5001;51.674;7.868;2024-01-07T02:56:43;21.53;;;18.20;;
9924;SDS011;5001;51.674;7.868;2024-01-07T02:59:10;19.77;;;17.63;;
9924;SDS011;5001;51.674;7.868;2024-01-07T03:05:40;19.87;;;15.80;;
9924;SDS011;5001;51.674;7.868;2024-01-07T03:08:07;18.33;;;16.40;;
9924;SDS011;5001;51.674;7.868;2024-01-07T03:10:34;20.43;;;17.23;;
9924;SDS011;5001;51.674;7.868;2024-01-07T03:13:01;19.83;;;17.77;;
9924;SDS011;5001;51.674;7.868;2024-01-07T03:15:29;18.37;;;16.47;;
9924;SDS011;5001;51.674;7.868;2024-01-07T03:17:57;18.77;;;16.90;;
9924;SDS011;5001;51.674;7.868;2024-01-07T03:20:24;17.70;;;16.10;;
9924;SDS011;5001;51.674;7.868;2024-01-07T03:22:51;16.83;;;15.37;;
9924;SDS011;5001;51.674;7.868;2024-01-07T03:25:18;18.23;;;16.33;;
9924;SDS011;5001;51.674;7.868;2024-01-07T03:27:45;18.57;;;16.73;;
9924;SDS011;5001;51.674;7.868;2024-01-07T03:30:12;18.33;;;16.43;;
9924;SDS011;5001;51.674;7.868;2024-01-07T03:32:39;18.07;;;16.23;;
9924;SDS011;5001;51.674;7.868;2024-01-07T03:35:06;19.33;;;16.60;;
9924;SDS011;5001;51.674;7.868;2024-01-07T03:37:35;17.80;;;15.93;;
9924;SDS011;5001;51.674;7.868;2024-01-07T03:40:02;19.20;;;17.30;;
9924;SDS011;5001;51.674;7.868;2024-01-07T03:42:30;19.80;;;15.67;;
9924;SDS011;5001;51.674;7.868;2024-01-07T03:44:57;19.70;;;17.80;;
9924;SDS011;5001;51.674;7.868;2024-01-07T03:47:24;20.23;;;16.60;;
9924;SDS011;5001;51.674;7.868;2024-01-07T03:49:51;18.37;;;16.47;;
9924;SDS011;5001;51.674;7.868;2024-01-07T03:52:18;18.33;;;16.40;;
9924;SDS011;5001;51.674;7.868;2024-01-07T03:54:45;20.60;;;17.53;;
9924;SDS011;5001;51.674;7.868;2024-01-07T03:57:12;17.73;;;15.90;;
9924;SDS011;5001;51.674;7.868;2024-01-07T03:59:39;17.10;;;15.40;;
9924;SDS011;5001;51.674;7.868;2024-01-07T04:02:06;18.00;;;16.27;;
9924;SDS011;5001;51.674;7.868;2024-01-07T04:04:33;18.83;;;16.83;;
9924;SDS011;5001;51.674;7.868;2024-01-07T04:07:00;20.20;;;17.87;;
9924;SDS011;5001;51.674;7.868;2024-01-07T04:09:27;19.57;;;17.50;;
9924;SDS011;5001;51.674;7.868;2024-01-07T04:11:54;17.43;;;15.67;;
9924;SDS011;5001;51.674;7.868;2024-01-07T04:14:21;21.27;;;16.67;;
9924;SDS011;5001;51.674;7.868;2024-01-07T04:16:48;17.43;;;15.70;;
9924;SDS011;5001;51.674;7.868;2024-01-07T04:19:15;17.57;;;15.70;;
9924;SDS011;5001;51.674;7.868;2024-01-07T04:21:45;17.47;;;15.77;;
9924;SDS011;5001;51.674;7.868;2024-01-07T04:24:13;19.17;;;17.00;;
9924;SDS011;5001;51.674;7.868;2024-01-07T04:26:40;19.70;;;15.97;;
9924;SDS011;5001;51.674;7.868;2024-01-07T04:29:07;22.13;;;17.60;;
9924;SDS011;5001;51.674;7.868;2024-01-07T04:31:34;20.90;;;17.43;;
9924;SDS011;5001;51.674;7.868;2024-01-07T04:34:01;17.53;;;15.83;;
9924;SDS011;5001;51.674;7.868;2024-01-07T04:36:29;18.47;;;16.67;;
9924;SDS011;5001;51.674;7.868;2024-01-07T04:38:56;17.80;;;15.80;;
9924;SDS011;5001;51.674;7.868;2024-01-07T04:41:23;20.53;;;18.27;;
9924;SDS011;5001;51.674;7.868;2024-01-07T04:43:50;20.03;;;17.03;;
9924;SDS011;5001;51.674;7.868;2024-01-07T04:46:18;18.30;;;16.50;;
9924;SDS011;5001;51.674;7.868;2024-01-07T04:48:45;18.33;;;16.53;;
9924;SDS011;5001;51.674;7.868;2024-01-07T04:51:12;18.80;;;16.60;;
9924;SDS011;5001;51.674;7.868;2024-01-07T04:53:39;18.37;;;16.40;;
9924;SDS011;5001;51.674;7.868;2024-01-07T04:56:06;18.87;;;16.93;;
9924;SDS011;5001;51.674;7.868;2024-01-07T04:58:34;19.07;;;17.00;;
9924;SDS011;5001;51.674;7.868;2024-01-07T05:01:01;18.23;;;16.40;;
9924;SDS011;5001;51.674;7.868;2024-01-07T05:03:28;19.47;;;17.50;;
9924;SDS011;5001;51.674;7.868;2024-01-07T05:05:55;20.10;;;17.90;;
9924;SDS011;5001;51.674;7.868;2024-01-07T05:08:22;17.40;;;15.70;;
9924;SDS011;5001;51.674;7.868;2024-01-07T05:10:52;20.53;;;15.67;;
9924;SDS011;5001;51.674;7.868;2024-01-07T05:13:19;18.23;;;16.33;;
9924;SDS011;5001;51.674;7.868;2024-01-07T05:15:46;18.83;;;16.83;;
9924;SDS011;5001;51.674;7.868;2024-01-07T05:18:23;21.83;;;17.07;;
9924;SDS011;5001;51.674;7.868;2024-01-07T05:20:51;18.30;;;16.53;;
9924;SDS011;5001;51.674;7.868;2024-01-07T05:23:18;17.47;;;15.70;;
9924;SDS011;5001;51.674;7.868;2024-01-07T05:25:46;22.73;;;16.33;;
9924;SDS011;5001;51.674;7.868;2024-01-07T05:28:13;16.90;;;15.20;;
9924;SDS011;5001;51.674;7.868;2024-01-07T05:30:41;17.47;;;15.67;;
9924;SDS011;5001;51.674;7.868;2024-01-07T05:33:10;16.90;;;15.40;;
9924;SDS011;5001;51.674;7.868;2024-01-07T05:35:37;18.60;;;16.27;;
9924;SDS011;5001;51.674;7.868;2024-01-07T05:38:04;19.87;;;17.97;;
9924;SDS011;5001;51.674;7.868;2024-01-07T05:40:31;18.53;;;16.73;;
9924;SDS011;5001;51.674;7.868;2024-01-07T05:42:58;18.03;;;16.20;;
9924;SDS011;5001;51.674;7.868;2024-01-07T05:45:25;19.40;;;17.57;;
9924;SDS011;5001;51.674;7.868;2024-01-07T05:47:52;21.57;;;17.63;;
9924;SDS011;5001;51.674;7.868;2024-01-07T05:50:19;18.20;;;16.50;;
9924;SDS011;5001;51.674;7.868;2024-01-07T05:52:46;20.43;;;17.77;;
9924;SDS011;5001;51.674;7.868;2024-01-07T05:55:13;18.30;;;16.53;;
9924;SDS011;5001;51.674;7.868;2024-01-07T05:57:42;18.13;;;16.37;;
9924;SDS011;5001;51.674;7.868;2024-01-07T06:00:09;16.93;;;15.23;;
9924;SDS011;5001;51.674;7.868;2024-01-07T06:02:40;18.00;;;16.30;;
9924;SDS011;5001;51.674;7.868;2024-01-07T06:05:07;16.07;;;14.70;;
9924;SDS011;5001;51.674;7.868;2024-01-07T06:07:35;17.77;;;15.77;;
9924;SDS011;5001;51.674;7.868;2024-01-07T06:10:02;18.87;;;15.83;;
9924;SDS011;5001;51.674;7.868;2024-01-07T06:12:29;17.50;;;15.80;;
9924;SDS011;5001;51.674;7.868;2024-01-07T06:14:56;14.47;;;13.33;;
9924;SDS011;5001;51.674;7.868;2024-01-07T06:17:23;15.77;;;14.17;;
9924;SDS011;5001;51.674;7.868;2024-01-07T06:19:50;16.20;;;14.70;;
9924;SDS011;5001;51.674;7.868;2024-01-07T06:22:17;16.17;;;14.57;;
9924;SDS011;5001;51.674;7.868;2024-01-07T06:24:44;14.20;;;13.23;;
9924;SDS011;5001;51.674;7.868;2024-01-07T06:27:11;16.47;;;14.83;;
9924;SDS011;5001;51.674;7.868;2024-01-07T06:29:39;15.30;;;14.07;;
9924;SDS011;5001;51.674;7.868;2024-01-07T06:32:06;15.30;;;13.90;;
9924;SDS011;5001;51.674;7.868;2024-01-07T06:34:33;17.57;;;15.90;;
9924;SDS011;5001;51.674;7.868;2024-01-07T06:37:00;15.60;;;14.20;;
9924;SDS011;5001;51.674;7.868;2024-01-07T06:39:28;15.80;;;14.53;;
9924;SDS011;5001;51.674;7.868;2024-01-07T06:41:55;17.10;;;15.50;;
9924;SDS011;5001;51.674;7.868;2024-01-07T06:44:22;15.73;;;14.33;;
9924;SDS011;5001;51.674;7.868;2024-01-07T06:46:49;14.70;;;13.43;;
9924;SDS011;5001;51.674;7.868;2024-01-07T06:49:16;14.03;;;13.03;;
9924;SDS011;5001;51.674;7.868;2024-01-07T06:51:43;13.00;;;12.00;;
9924;SDS011;5001;51.674;7.868;2024-01-07T06:54:10;12.47;;;11.37;;
9924;SDS011;5001;51.674;7.868;2024-01-07T06:56:40;13.77;;;12.60;;
9924;SDS011;5001;51.674;7.868;2024-01-07T06:59:07;12.83;;;11.80;;
9924;SDS011;5001;51.674;7.868;2024-01-07T07:01:34;13.90;;;12.50;;
9924;SDS011;5001;51.674;7.868;2024-01-07T07:04:01;13.57;;;12.37;;
9924;SDS011;5001;51.674;7.868;2024-01-07T07:06:29;13.10;;;12.00;;
9924;SDS011;5001;51.674;7.868;2024-01-07T07:08:56;15.80;;;13.27;;
9924;SDS011;5001;51.674;7.868;2024-01-07T07:11:23;13.53;;;12.13;;
9924;SDS011;5001;51.674;7.868;2024-01-07T07:13:49;14.10;;;12.90;;
9924;SDS011;5001;51.674;7.868;2024-01-07T07:16:16;14.03;;;12.57;;
9924;SDS011;5001;51.674;7.868;2024-01-07T07:18:44;16.47;;;14.13;;
9924;SDS011;5001;51.674;7.868;2024-01-07T07:21:11;14.87;;;13.37;;
9924;SDS011;5001;51.674;7.868;2024-01-07T07:23:38;15.03;;;13.60;;
9924;SDS011;5001;51.674;7.868;2024-01-07T07:26:05;16.63;;;15.00;;
9924;SDS011;5001;51.674;7.868;2024-01-07T07:28:33;17.33;;;14.90;;
9924;SDS011;5001;51.674;7.868;2024-01-07T07:31:00;16.53;;;14.83;;
9924;SDS011;5001;51.674;7.868;2024-01-07T07:33:27;15.17;;;13.80;;
9924;SDS011;5001;51.674;7.868;2024-01-07T07:35:54;16.10;;;13.90;;
9924;SDS011;5001;51.674;7.868;2024-01-07T07:38:21;15.47;;;14.17;;
9924;SDS011;5001;51.674;7.868;2024-01-07T07:40:49;16.77;;;15.23;;
9924;SDS011;5001;51.674;7.868;2024-01-07T07:43:19;17.03;;;15.43;;
9924;SDS011;5001;51.674;7.868;2024-01-07T07:45:49;17.80;;;15.60;;
9924;SDS011;5001;51.674;7.868;2024-01-07T07:48:18;17.27;;;15.77;;
9924;SDS011;5001;51.674;7.868;2024-01-07T07:50:45;21.63;;;16.63;;
9924;SDS011;5001;51.674;7.868;2024-01-07T07:53:12;20.90;;;15.73;;
9924;SDS011;5001;51.674;7.868;2024-01-07T07:55:39;17.90;;;16.20;;
9924;SDS011;5001;51.674;7.868;2024-01-07T07:58:06;18.40;;;14.77;;
9924;SDS011;5001;51.674;7.868;2024-01-07T08:00:34;15.57;;;14.17;;
9924;SDS011;5001;51.674;7.868;2024-01-07T08:03:01;17.50;;;15.77;;
9924;SDS011;5001;51.674;7.868;2024-01-07T08:05:29;17.33;;;15.57;;
9924;SDS011;5001;51.674;7.868;2024-01-07T08:07:56;17.27;;;15.20;;
9924;SDS011;5001;51.674;7.868;2024-01-07T08:10:23;17.30;;;15.70;;
9924;SDS011;5001;51.674;7.868;2024-01-07T08:12:50;18.03;;;14.37;;
9924;SDS011;5001;51.674;7.868;2024-01-07T08:15:17;17.07;;;14.97;;
9924;SDS011;5001;51.674;7.868;2024-01-07T08:17:44;17.23;;;15.47;;
9924;SDS011;5001;51.674;7.868;2024-01-07T08:20:11;26.50;;;16.63;;
9924;SDS011;5001;51.674;7.868;2024-01-07T08:22:38;19.23;;;15.50;;
9924;SDS011;5001;51.674;7.868;2024-01-07T08:25:05;16.57;;;14.93;;
9924;SDS011;5001;51.674;7.868;2024-01-07T08:27:33;15.33;;;13.93;;
9924;SDS011;5001;51.674;7.868;2024-01-07T08:30:01;15.30;;;14.00;;
9924;SDS011;5001;51.674;7.868;2024-01-07T08:32:28;38.90;;;20.07;;
9924;SDS011;5001;51.674;7.868;2024-01-07T08:34:55;15.27;;;13.97;;
9924;SDS011;5001;51.674;7.868;2024-01-07T08:37:22;16.40;;;14.73;;
9924;SDS011;5001;51.674;7.868;2024-01-07T08:39:49;15.23;;;14.07;;
9924;SDS011;5001;51.674;7.868;2024-01-07T08:42:16;16.37;;;14.77;;
9924;SDS011;5001;51.674;7.868;2024-01-07T08:44:43;27.67;;;16.37;;
9924;SDS011;5001;51.674;7.868;2024-01-07T08:47:10;15.17;;;13.97;;
9924;SDS011;5001;51.674;7.868;2024-01-07T08:49:37;14.30;;;12.90;;
9924;SDS011;5001;51.674;7.868;2024-01-07T08:52:05;14.80;;;13.73;;
9924;SDS011;5001;51.674;7.868;2024-01-07T08:54:32;16.10;;;14.57;;
9924;SDS011;5001;51.674;7.868;2024-01-07T08:56:59;15.57;;;14.37;;
9924;SDS011;5001;51.674;7.868;2024-01-07T08:59:26;14.87;;;13.77;;
9924;SDS011;5001;51.674;7.868;2024-01-07T09:01:53;13.80;;;12.80;;
9924;SDS011;5001;51.674;7.868;2024-01-07T09:04:20;15.17;;;13.97;;
9924;SDS011;5001;51.674;7.868;2024-01-07T09:06:48;14.57;;;13.27;;
9924;SDS011;5001;51.674;7.868;2024-01-07T09:09:15;14.80;;;13.50;;
9924;SDS011;5001;51.674;7.868;2024-01-07T09:11:42;15.30;;;13.83;;
9924;SDS011;5001;51.674;7.868;2024-01-07T09:14:11;16.73;;;15.13;;
9924;SDS011;5001;51.674;7.868;2024-01-07T09:16:38;15.00;;;13.90;;
9924;SDS011;5001;51.674;7.868;2024-01-07T09:19:05;17.70;;;15.10;;
9924;SDS011;5001;51.674;7.868;2024-01-07T09:21:32;13.37;;;12.57;;
9924;SDS011;5001;51.674;7.868;2024-01-07T09:24:00;14.13;;;13.03;;
9924;SDS011;5001;51.674;7.868;2024-01-07T09:26:27;13.87;;;12.97;;
9924;SDS011;5001;51.674;7.868;2024-01-07T09:28:56;14.83;;;13.83;;
9924;SDS011;5001;51.674;7.868;2024-01-07T09:31:23;14.30;;;13.30;;
9924;SDS011;5001;51.674;7.868;2024-01-07T09:33:50;14.97;;;13.87;;
9924;SDS011;5001;51.674;7.868;2024-01-07T09:36:17;13.50;;;12.70;;
9924;SDS011;5001;51.674;7.868;2024-01-07T09:38:55;14.37;;;13.17;;
9924;SDS011;5001;51.674;7.868;2024-01-07T09:41:28;14.40;;;13.47;;
9924;SDS011;5001;51.674;7.868;2024-01-07T09:43:56;14.67;;;13.67;;
9924;SDS011;5001;51.674;7.868;2024-01-07T09:46:25;14.97;;;13.73;;
9924;SDS011;5001;51.674;7.868;2024-01-07T09:48:55;14.27;;;13.37;;
9924;SDS011;5001;51.674;7.868;2024-01-07T09:51:32;13.90;;;13.00;;
9924;SDS011;5001;51.674;7.868;2024-01-07T09:54:05;14.50;;;13.53;;
9924;SDS011;5001;51.674;7.868;2024-01-07T09:56:46;13.63;;;12.73;;
9924;SDS011;5001;51.674;7.868;2024-01-07T09:59:29;13.43;;;12.63;;
9924;SDS011;5001;51.674;7.868;2024-01-07T10:01:57;13.90;;;12.93;;
9924;SDS011;5001;51.674;7.868;2024-01-07T10:04:24;13.60;;;12.80;;
9924;SDS011;5001;51.674;7.868;2024-01-07T10:06:52;13.83;;;12.93;;
9924;SDS011;5001;51.674;7.868;2024-01-07T10:09:24;13.83;;;12.93;;
9924;SDS011;5001;51.674;7.868;2024-01-07T10:11:58;14.57;;;13.60;;
9924;SDS011;5001;51.674;7.868;2024-01-07T10:14:29;13.70;;;12.80;;
9924;SDS011;5001;51.674;7.868;2024-01-07T10:17:15;14.30;;;13.30;;
9924;SDS011;5001;51.674;7.868;2024-01-07T10:19:44;13.43;;;12.67;;
9924;SDS011;5001;51.674;7.868;2024-01-07T10:22:14;14.40;;;13.40;;
9924;SDS011;5001;51.674;7.868;2024-01-07T10:24:56;14.57;;;13.67;;
9924;SDS011;5001;51.674;7.868;2024-01-07T10:27:24;14.07;;;13.17;;
9924;SDS011;5001;51.674;7.868;2024-01-07T10:29:58;13.63;;;12.83;;
9924;SDS011;5001;51.674;7.868;2024-01-07T10:32:26;13.97;;;12.93;;
9924;SDS011;5001;51.674;7.868;2024-01-07T10:34:54;15.57;;;14.47;;
9924;SDS011;5001;51.674;7.868;2024-01-07T10:37:31;15.30;;;14.10;;
9924;SDS011;5001;51.674;7.868;2024-01-07T10:39:59;14.07;;;13.17;;
9924;SDS011;5001;51.674;7.868;2024-01-07T10:42:31;14.93;;;13.73;;
9924;SDS011;5001;51.674;7.868;2024-01-07T10:45:00;14.07;;;13.07;;
9924;SDS011;5001;51.674;7.868;2024-01-07T10:47:29;13.97;;;13.07;;
9924;SDS011;5001;51.674;7.868;2024-01-07T10:49:58;14.70;;;13.60;;
9924;SDS011;5001;51.674;7.868;2024-01-07T10:52:26;14.70;;;13.60;;
9924;SDS011;5001;51.674;7.868;2024-01-07T10:54:57;14.07;;;13.17;;
9924;SDS011;5001;51.674;7.868;2024-01-07T10:57:34;13.33;;;12.53;;
9924;SDS011;5001;51.674;7.868;2024-01-07T11:00:07;14.33;;;13.43;;
9924;SDS011;5001;51.674;7.868;2024-01-07T11:03:00;14.43;;;13.53;;
9924;SDS011;5001;51.674;7.868;2024-01-07T11:06:03;14.20;;;13.40;;
9924;SDS011;5001;51.674;7.868;2024-01-07T11:08:59;14.03;;;13.23;;
9924;SDS011;5001;51.674;7.868;2024-01-07T11:11:50;14.03;;;13.13;;
9924;SDS011;5001;51.674;7.868;2024-01-07T11:20:02;14.37;;;13.47;;
9924;SDS011;5001;51.674;7.868;2024-01-07T11:22:32;15.37;;;14.20;;
9924;SDS011;5001;51.674;7.868;2024-01-07T11:25:00;14.87;;;13.83;;
9924;SDS011;5001;51.674;7.868;2024-01-07T11:27:30;15.43;;;14.43;;
9924;SDS011;5001;51.674;7.868;2024-01-07T11:30:10;15.13;;;14.10;;
9924;SDS011;5001;51.674;7.868;2024-01-07T11:32:47;13.93;;;13.13;;
9924;SDS011;5001;51.674;7.868;2024-01-07T11:35:21;14.13;;;13.23;;
9924;SDS011;5001;51.674;7.868;2024-01-07T11:38:08;14.60;;;13.70;;
9924;SDS011;5001;51.674;7.868;2024-01-07T11:40:36;14.53;;;13.57;;
9924;SDS011;5001;51.674;7.868;2024-01-07T11:43:03;14.40;;;13.47;;
9924;SDS011;5001;51.674;7.868;2024-01-07T11:45:32;14.47;;;13.57;;
9924;SDS011;5001;51.674;7.868;2024-01-07T11:48:02;15.03;;;13.97;;
9924;SDS011;5001;51.674;7.868;2024-01-07T11:50:40;14.63;;;13.73;;
9924;SDS011;5001;51.674;7.868;2024-01-07T11:53:08;15.17;;;14.07;;
9924;SDS011;5001;51.674;7.868;2024-01-07T11:55:38;15.60;;;14.20;;
9924;SDS011;5001;51.674;7.868;2024-01-07T11:58:05;14.70;;;13.87;;
9924;SDS011;5001;51.674;7.868;2024-01-07T12:00:40;15.13;;;14.13;;
9924;SDS011;5001;51.674;7.868;2024-01-07T12:03:10;16.70;;;15.20;;
9924;SDS011;5001;51.674;7.868;2024-01-07T12:05:40;14.77;;;13.77;;
9924;SDS011;5001;51.674;7.868;2024-01-07T12:08:10;14.67;;;13.67;;
9924;SDS011;5001;51.674;7.868;2024-01-07T12:10:37;15.20;;;13.93;;
9924;SDS011;5001;51.674;7.868;2024-01-07T12:13:04;15.47;;;14.27;;
9924;SDS011;5001;51.674;7.868;2024-01-07T12:15:32;15.30;;;14.30;;
9924;SDS011;5001;51.674;7.868;2024-01-07T12:18:00;15.57;;;14.57;;
9924;SDS011;5001;51.674;7.868;2024-01-07T12:20:29;15.23;;;14.17;;
9924;SDS011;5001;51.674;7.868;2024-01-07T12:23:04;14.60;;;13.70;;
9924;SDS011;5001;51.674;7.868;2024-01-07T12:25:34;14.50;;;13.60;;
9924;SDS011;5001;51.674;7.868;2024-01-07T12:28:02;15.10;;;14.10;;
9924;SDS011;5001;51.674;7.868;2024-01-07T12:30:33;15.97;;;14.70;;
9924;SDS011;5001;51.674;7.868;2024-01-07T12:33:00;15.10;;;14.00;;
9924;SDS011;5001;51.674;7.868;2024-01-07T12:35:31;15.30;;;14.17;;
9924;SDS011;5001;51.674;7.868;2024-01-07T12:42:02;16.17;;;14.73;;
9924;SDS011;5001;51.674;7.868;2024-01-07T12:44:30;15.50;;;14.53;;
9924;SDS011;5001;51.674;7.868;2024-01-07T12:47:00;15.10;;;14.13;;
9924;SDS011;5001;51.674;7.868;2024-01-07T12:49:30;15.27;;;14.27;;
9924;SDS011;5001;51.674;7.868;2024-01-07T12:51:57;15.30;;;14.40;;
9924;SDS011;5001;51.674;7.868;2024-01-07T12:54:26;15.23;;;14.33;;
9924;SDS011;5001;51.674;7.868;2024-01-07T12:56:56;15.80;;;14.70;;
9924;SDS011;5001;51.674;7.868;2024-01-07T12:59:26;16.07;;;14.80;;
9924;SDS011;5001;51.674;7.868;2024-01-07T13:01:53;15.60;;;14.50;;
9924;SDS011;5001;51.674;7.868;2024-01-07T13:04:20;16.00;;;14.80;;
9924;SDS011;5001;51.674;7.868;2024-01-07T13:06:50;15.23;;;14.33;;
9924;SDS011;5001;51.674;7.868;2024-01-07T13:09:19;15.80;;;14.80;;
9924;SDS011;5001;51.674;7.868;2024-01-07T13:11:49;16.07;;;15.00;;
9924;SDS011;5001;51.674;7.868;2024-01-07T13:14:16;15.27;;;14.27;;
9924;SDS011;5001;51.674;7.868;2024-01-07T13:16:52;14.40;;;13.60;;
9924;SDS011;5001;51.674;7.868;2024-01-07T13:19:20;15.43;;;14.43;;
9924;SDS011;5001;51.674;7.868;2024-01-07T13:21:47;15.37;;;14.47;;
9924;SDS011;5001;51.674;7.868;2024-01-07T13:24:17;15.87;;;14.87;;
9924;SDS011;5001;51.674;7.868;2024-01-07T13:26:45;15.83;;;14.83;;
9924;SDS011;5001;51.674;7.868;2024-01-07T13:29:12;15.43;;;14.53;;
9924;SDS011;5001;51.674;7.868;2024-01-07T13:31:39;15.80;;;14.80;;
9924;SDS011;5001;51.674;7.868;2024-01-07T13:34:06;14.80;;;13.90;;
9924;SDS011;5001;51.674;7.868;2024-01-07T13:36:35;15.70;;;14.50;;
9924;SDS011;5001;51.674;7.868;2024-01-07T13:39:02;15.10;;;14.20;;
9924;SDS011;5001;51.674;7.868;2024-01-07T13:41:29;14.90;;;14.00;;
9924;SDS011;5001;51.674;7.868;2024-01-07T13:44:01;15.53;;;14.63;;
9924;SDS011;5001;51.674;7.868;2024-01-07T13:46:29;15.07;;;14.17;;
9924;SDS011;5001;51.674;7.868;2024-01-07T13:48:57;14.93;;;14.03;;
9924;SDS011;5001;51.674;7.868;2024-01-07T13:51:29;15.00;;;14.10;;
9924;SDS011;5001;51.674;7.868;2024-01-07T13:53:57;15.50;;;14.50;;
9924;SDS011;5001;51.674;7.868;2024-01-07T13:56:24;14.80;;;14.00;;
9924;SDS011;5001;51.674;7.868;2024-01-07T13:58:54;15.63;;;14.53;;
9924;SDS011;5001;51.674;7.868;2024-01-07T14:01:23;16.03;;;14.93;;
9924;SDS011;5001;51.674;7.868;2024-01-07T14:03:50;15.70;;;14.70;;
9924;SDS011;5001;51.674;7.868;2024-01-07T14:06:20;15.00;;;14.10;;
9924;SDS011;5001;51.674;7.868;2024-01-07T14:08:47;14.73;;;13.83;;
9924;SDS011;5001;51.674;7.868;2024-01-07T14:11:18;14.90;;;13.90;;
9924;SDS011;5001;51.674;7.868;2024-01-07T14:13:46;15.90;;;14.70;;
9924;SDS011;5001;51.674;7.868;2024-01-07T14:16:13;14.60;;;13.70;;
9924;SDS011;5001;51.674;7.868;2024-01-07T14:18:41;14.30;;;13.30;;
9924;SDS011;5001;51.674;7.868;2024-01-07T14:21:11;13.67;;;12.83;;
9924;SDS011;5001;51.674;7.868;2024-01-07T14:23:38;14.13;;;13.03;;
9924;SDS011;5001;51.674;7.868;2024-01-07T14:26:11;14.10;;;13.20;;
9924;SDS011;5001;51.674;7.868;2024-01-07T14:28:38;13.37;;;12.57;;
9924;SDS011;5001;51.674;7.868;2024-01-07T14:31:05;14.60;;;13.60;;
9924;SDS011;5001;51.674;7.868;2024-01-07T14:33:36;14.00;;;13.10;;
9924;SDS011;5001;51.674;7.868;2024-01-07T14:36:04;15.43;;;13.97;;
9924;SDS011;5001;51.674;7.868;2024-01-07T14:38:31;13.90;;;13.10;;
9924;SDS011;5001;51.674;7.868;2024-01-07T14:41:01;14.90;;;14.00;;
9924;SDS011;5001;51.674;7.868;2024-01-07T14:43:29;14.53;;;13.63;;
9924;SDS011;5001;51.674;7.868;2024-01-07T14:45:56;14.23;;;13.33;;
9924;SDS011;5001;51.674;7.868;2024-01-07T14:48:30;14.17;;;13.17;;
9924;SDS011;5001;51.674;7.868;2024-01-07T14:50:57;16.10;;;15.10;;
9924;SDS011;5001;51.674;7.868;2024-01-07T14:53:27;14.37;;;13.53;;
9924;SDS011;5001;51.674;7.868;2024-01-07T14:55:56;14.90;;;13.90;;
9924;SDS011;5001;51.674;7.868;2024-01-07T14:58:24;15.47;;;14.30;;
9924;SDS011;5001;51.674;7.868;2024-01-07T15:00:51;14.77;;;13.93;;
9924;SDS011;5001;51.674;7.868;2024-01-07T15:03:19;14.80;;;13.90;;
9924;SDS011;5001;51.674;7.868;2024-01-07T15:05:46;14.90;;;13.90;;
9924;SDS011;5001;51.674;7.868;2024-01-07T15:08:16;14.57;;;13.50;;
9924;SDS011;5001;51.674;7.868;2024-01-07T15:10:43;15.87;;;14.57;;